createdAt,value
2023-05-24T00:01:04.798Z,75.25
2023-05-24T00:03:35.059Z,74.64
2023-05-24T00:06:03.917Z,74.45
2023-05-24T00:08:32.154Z,74.12
2023-05-24T00:11:01.779Z,73.91
2023-05-24T00:13:30.154Z,73.78
2023-05-24T00:15:58.383Z,73.75
2023-05-24T00:18:26.630Z,73.69
2023-05-24T00:20:57.218Z,73.59
2023-05-24T00:23:25.771Z,73.58
2023-05-24T00:25:57.597Z,73.38
2023-05-24T00:28:27.201Z,73.62
2023-05-24T00:30:55.488Z,73.50
2023-05-24T00:33:24.356Z,73.44
2023-05-24T00:35:56.442Z,73.44
2023-05-24T00:38:25.247Z,73.38
2023-05-24T00:40:56.393Z,73.44
2023-05-24T00:43:25.100Z,73.34
2023-05-24T00:46:13.327Z,73.42
2023-05-24T00:48:42.095Z,73.46
2023-05-24T00:51:10.640Z,73.49
2023-05-24T00:53:39.083Z,73.51
2023-05-24T00:56:08.546Z,73.50
2023-05-24T00:58:37.176Z,73.64
2023-05-24T01:01:07.071Z,73.64
2023-05-24T01:03:36.278Z,73.51
2023-05-24T01:06:08.344Z,73.47
2023-05-24T01:09:09.411Z,73.64
2023-05-24T01:11:48.814Z,73.67
2023-05-24T01:14:23.805Z,73.50
2023-05-24T01:16:58.101Z,73.64
2023-05-24T01:19:44.908Z,73.65
2023-05-24T01:22:25.723Z,73.79
2023-05-24T01:25:04.637Z,73.93
2023-05-24T01:27:35.647Z,74.06
2023-05-24T01:30:04.782Z,73.97
2023-05-24T01:32:33.734Z,73.87
2023-05-24T01:35:02.012Z,74.02
2023-05-24T01:37:30.279Z,74.03
2023-05-24T01:39:58.955Z,74.02
2023-05-24T01:42:28.702Z,73.78
2023-05-24T01:45:05.720Z,73.85
2023-05-24T01:47:46.979Z,73.74
2023-05-24T01:50:23.804Z,74.06
2023-05-24T01:52:54.650Z,74.04
2023-05-24T01:55:23.799Z,73.98
2023-05-24T01:57:52.808Z,74.23
2023-05-24T02:00:23.577Z,74.12
2023-05-24T02:02:55.584Z,74.34
2023-05-24T02:05:24.625Z,74.04
2023-05-24T02:07:54.625Z,74.00
2023-05-24T02:10:26.563Z,74.07
2023-05-24T02:12:54.852Z,74.31
2023-05-24T02:15:24.676Z,74.26
2023-05-24T02:17:54.738Z,74.28
2023-05-24T02:20:23.931Z,74.15
2023-05-24T02:22:52.293Z,74.28
2023-05-24T02:25:20.803Z,74.54
2023-05-24T02:27:49.332Z,74.29
2023-05-24T02:30:17.622Z,74.41
2023-05-24T02:32:47.292Z,74.25
2023-05-24T02:35:15.744Z,74.48
2023-05-24T02:37:44.067Z,74.38
2023-05-24T02:40:13.470Z,74.67
2023-05-24T02:42:41.874Z,74.70
2023-05-24T02:45:10.813Z,74.45
2023-05-24T02:47:39.217Z,74.50
2023-05-24T02:50:10.069Z,74.54
2023-05-24T02:52:38.450Z,74.67
2023-05-24T02:55:08.569Z,74.58
2023-05-24T02:57:37.914Z,74.62
2023-05-24T03:00:09.182Z,74.57
2023-05-24T03:02:38.821Z,74.34
2023-05-24T03:05:09.494Z,74.57
2023-05-24T03:07:37.713Z,74.71
2023-05-24T03:10:08.811Z,74.91
2023-05-24T03:12:37.206Z,74.80
2023-05-24T03:15:06.194Z,74.56
2023-05-24T03:17:34.482Z,74.74
2023-05-24T03:20:02.898Z,74.99
2023-05-24T03:22:34.279Z,74.99
2023-05-24T03:25:04.622Z,75.00
2023-05-24T03:27:32.916Z,75.07
2023-05-24T03:30:01.152Z,74.79
2023-05-24T03:32:32.636Z,74.64
2023-05-24T03:35:01.633Z,74.92
2023-05-24T03:37:30.426Z,74.94
2023-05-24T03:40:00.026Z,75.02
2023-05-24T03:42:51.695Z,75.09
2023-05-24T03:45:34.458Z,75.02
2023-05-24T03:48:06.794Z,75.07
2023-05-24T03:50:35.902Z,74.98
2023-05-24T03:53:04.255Z,74.76
2023-05-24T03:55:34.051Z,74.74
2023-05-24T03:58:02.304Z,74.68
2023-05-24T04:00:30.670Z,75.08
2023-05-24T04:03:00.261Z,75.17
2023-05-24T04:05:30.392Z,74.85
2023-05-24T04:07:58.733Z,74.66
2023-05-24T04:10:37.266Z,74.83
2023-05-24T04:13:05.514Z,74.64
2023-05-24T04:15:38.040Z,74.76
2023-05-24T04:18:06.722Z,74.63
2023-05-24T04:20:36.535Z,74.54
2023-05-24T04:23:04.808Z,74.38
2023-05-24T04:25:33.518Z,74.70
2023-05-24T04:28:03.957Z,74.46
2023-05-24T04:30:33.862Z,74.59
2023-05-24T04:33:02.251Z,74.67
2023-05-24T04:35:31.349Z,74.57
2023-05-24T04:38:00.225Z,74.37
2023-05-24T04:40:28.524Z,74.54
2023-05-24T04:42:59.505Z,74.70
2023-05-24T04:45:30.783Z,74.30
2023-05-24T04:47:59.059Z,74.15
2023-05-24T04:50:27.323Z,73.79
2023-05-24T04:52:55.540Z,73.86
2023-05-24T04:55:23.853Z,73.43
2023-05-24T04:57:52.097Z,73.78
2023-05-24T05:00:21.393Z,73.92
2023-05-24T05:02:51.398Z,73.96
2023-05-24T05:05:20.182Z,73.76
2023-05-24T05:07:48.475Z,73.60
2023-05-24T05:10:16.825Z,73.48
2023-05-24T05:12:45.048Z,73.58
2023-05-24T05:15:13.677Z,73.46
2023-05-24T05:17:42.202Z,73.38
2023-05-24T05:20:12.067Z,73.68
2023-05-24T05:22:40.460Z,73.49
2023-05-24T05:25:09.406Z,73.34
2023-05-24T05:27:37.616Z,73.21
2023-05-24T05:30:06.949Z,73.26
2023-05-24T05:32:35.640Z,73.09
2023-05-24T05:35:03.975Z,72.97
2023-05-24T05:37:33.672Z,72.77
2023-05-24T05:40:01.922Z,73.09
2023-05-24T05:42:30.171Z,73.32
2023-05-24T05:44:58.678Z,73.31
2023-05-24T05:47:26.998Z,72.86
2023-05-24T05:49:55.366Z,72.91
2023-05-24T05:52:23.676Z,72.94
2023-05-24T05:54:53.293Z,71.88
2023-05-24T05:57:24.267Z,71.86
2023-05-24T05:59:52.893Z,71.77
2023-05-24T06:02:22.956Z,71.19
2023-05-24T06:04:51.551Z,72.51
2023-05-24T06:07:20.127Z,71.77
2023-05-24T06:09:48.388Z,70.97
2023-05-24T06:12:18.144Z,70.92
2023-05-24T06:14:48.364Z,70.59
2023-05-24T06:17:16.628Z,70.42
2023-05-24T06:19:44.871Z,70.03
2023-05-24T06:22:13.145Z,70.68
2023-05-24T06:24:41.381Z,70.52
2023-05-24T06:27:09.616Z,71.12
2023-05-24T06:29:39.548Z,71.17
2023-05-24T06:32:08.032Z,71.29
2023-05-24T06:34:36.243Z,71.06
2023-05-24T06:37:04.834Z,70.61
2023-05-24T06:39:33.054Z,70.20
2023-05-24T06:42:01.952Z,70.93
2023-05-24T06:44:34.567Z,71.03
2023-05-24T06:47:05.871Z,70.75
2023-05-24T06:49:34.538Z,70.96
2023-05-24T06:52:02.826Z,70.41
2023-05-24T06:54:31.070Z,70.68
2023-05-24T06:56:59.313Z,70.50
2023-05-24T06:59:28.291Z,70.72
2023-05-24T07:01:58.903Z,70.74
2023-05-24T07:04:29.812Z,70.56
2023-05-24T07:06:58.503Z,70.52
2023-05-24T07:09:27.000Z,70.45
2023-05-24T07:11:55.267Z,70.58
2023-05-24T07:14:25.954Z,70.10
2023-05-24T07:16:57.508Z,69.20
2023-05-24T07:19:29.347Z,69.31
2023-05-24T07:21:59.366Z,67.88
2023-05-24T07:24:27.645Z,67.62
2023-05-24T07:26:56.791Z,68.17
2023-05-24T07:29:26.078Z,68.39
2023-05-24T07:31:56.699Z,67.84
2023-05-24T07:34:27.624Z,67.31
2023-05-24T07:36:56.069Z,67.08
2023-05-24T07:39:27.321Z,65.08
2023-05-24T07:41:55.784Z,65.46
2023-05-24T07:44:24.430Z,65.78
2023-05-24T07:46:52.714Z,63.22
2023-05-24T07:49:21.099Z,64.60
2023-05-24T07:51:49.689Z,65.01
2023-05-24T07:54:17.920Z,63.91
2023-05-24T07:56:47.488Z,64.09
2023-05-24T07:59:15.948Z,64.56
2023-05-24T08:01:44.372Z,66.38
2023-05-24T08:04:12.630Z,66.07
2023-05-24T08:06:41.012Z,65.41
2023-05-24T08:09:10.004Z,65.67
2023-05-24T08:11:38.231Z,64.96
2023-05-24T08:14:07.998Z,65.69
2023-05-24T08:16:36.425Z,65.28
2023-05-24T08:19:04.696Z,64.78
2023-05-24T08:21:33.861Z,64.43
2023-05-24T08:24:02.128Z,65.08
2023-05-24T08:26:30.445Z,63.94
2023-05-24T08:28:58.673Z,64.40
2023-05-24T08:31:28.313Z,63.56
2023-05-24T08:33:57.735Z,63.66
2023-05-24T08:36:26.127Z,62.47
2023-05-24T08:38:54.421Z,61.44
2023-05-24T08:41:22.711Z,62.11
2023-05-24T08:43:51.648Z,61.12
2023-05-24T08:46:20.143Z,62.44
2023-05-24T08:48:49.939Z,62.86
2023-05-24T08:51:18.380Z,62.30
2023-05-24T08:53:50.106Z,62.91
2023-05-24T08:56:19.429Z,61.18
2023-05-24T08:58:47.762Z,62.53
2023-05-24T09:01:17.801Z,62.31
2023-05-24T09:03:47.893Z,63.08
2023-05-24T09:06:19.314Z,63.27
2023-05-24T09:08:50.278Z,62.34
2023-05-24T09:11:19.604Z,62.98
2023-05-24T09:13:49.335Z,63.40
2023-05-24T09:16:17.878Z,60.06
2023-05-24T09:18:46.232Z,61.31
2023-05-24T09:21:14.840Z,62.02
2023-05-24T09:23:45.930Z,61.12
2023-05-24T09:26:14.623Z,61.45
2023-05-24T09:28:44.269Z,61.01
2023-05-24T09:31:13.873Z,61.67
2023-05-24T09:33:42.227Z,58.93
2023-05-24T09:36:11.795Z,60.86
2023-05-24T09:38:40.004Z,61.15
2023-05-24T09:41:11.031Z,61.48
2023-05-24T09:43:49.525Z,60.47
2023-05-24T09:46:19.096Z,60.51
2023-05-24T09:48:57.734Z,61.18
2023-05-24T09:51:26.425Z,61.42
2023-05-24T09:53:58.404Z,60.82
2023-05-24T09:56:28.274Z,59.86
2023-05-24T09:58:57.150Z,59.15
2023-05-24T10:01:26.878Z,59.82
2023-05-24T10:03:56.383Z,60.15
2023-05-24T10:06:25.112Z,61.34
2023-05-24T10:08:54.841Z,60.67
2023-05-24T10:11:23.068Z,62.70
2023-05-24T10:13:52.908Z,61.56
2023-05-24T10:16:21.600Z,62.75
2023-05-24T10:18:50.828Z,61.12
2023-05-24T10:21:22.759Z,60.13
2023-05-24T10:23:53.665Z,58.95
2023-05-24T10:26:26.228Z,60.02
2023-05-24T10:29:01.177Z,60.32
2023-05-24T10:31:32.525Z,58.98
2023-05-24T10:34:08.001Z,57.88
2023-05-24T10:36:39.984Z,93.71
2023-05-24T10:39:12.498Z,100.11
2023-05-24T10:41:42.203Z,99.67
2023-05-24T10:44:19.699Z,103.32
2023-05-24T10:47:10.828Z,99.26
2023-05-24T10:49:40.215Z,101.66
2023-05-24T10:52:10.134Z,101.97
2023-05-24T10:54:44.695Z,105.28
2023-05-24T10:57:24.566Z,100.61
2023-05-24T10:59:58.450Z,101.44
2023-05-24T11:02:29.953Z,102.67
2023-05-24T11:05:00.351Z,102.22
2023-05-24T11:07:28.813Z,107.44
2023-05-24T11:09:59.860Z,102.85
2023-05-24T11:12:34.641Z,104.09
2023-05-24T11:15:04.698Z,102.65
2023-05-24T11:18:12.817Z,101.19
2023-05-24T11:20:44.646Z,103.21
2023-05-24T11:23:13.298Z,104.31
2023-05-24T11:25:41.872Z,103.93
2023-05-24T11:28:12.014Z,102.52
2023-05-24T11:30:42.502Z,105.08
2023-05-24T11:33:18.732Z,95.68
2023-05-24T11:35:47.336Z,97.93
2023-05-24T11:38:17.096Z,99.58
2023-05-24T11:40:47.052Z,95.23
2023-05-24T11:43:16.792Z,99.22
2023-05-24T11:45:48.778Z,96.29
2023-05-24T11:48:17.646Z,96.10
2023-05-24T11:50:49.699Z,95.65
2023-05-24T11:53:20.480Z,90.86
2023-05-24T11:55:48.841Z,94.76
2023-05-24T11:58:24.519Z,94.20
2023-05-24T12:00:54.137Z,92.15
2023-05-24T12:03:22.474Z,94.93
2023-05-24T12:05:51.422Z,96.68
2023-05-24T12:08:20.468Z,86.42
2023-05-24T12:10:51.741Z,88.54
2023-05-24T12:13:23.212Z,92.39
2023-05-24T12:15:56.575Z,85.35
2023-05-24T12:18:26.848Z,86.39
2023-05-24T12:20:55.354Z,85.42
2023-05-24T12:23:25.786Z,86.00
2023-05-24T12:25:59.862Z,83.38
2023-05-24T12:28:28.561Z,85.38
2023-05-24T12:30:58.931Z,86.40
2023-05-24T12:33:27.267Z,88.63
2023-05-24T12:35:56.301Z,89.00
2023-05-24T12:38:26.183Z,89.76
2023-05-24T12:41:11.599Z,84.15
2023-05-24T12:43:44.423Z,86.30
2023-05-24T12:46:14.400Z,88.64
2023-05-24T12:48:43.085Z,87.92
2023-05-24T12:51:11.895Z,83.63
2023-05-24T12:53:40.400Z,84.66
2023-05-24T12:56:09.284Z,84.90
2023-05-24T12:58:37.571Z,84.77
2023-05-24T13:01:05.944Z,86.76
2023-05-24T13:03:36.173Z,86.80
2023-05-24T13:06:04.607Z,88.79
2023-05-24T13:08:32.838Z,86.11
2023-05-24T13:11:01.110Z,85.87
2023-05-24T13:13:29.780Z,83.90
2023-05-24T13:15:58.248Z,84.85
2023-05-24T13:18:27.212Z,86.58
2023-05-24T13:20:57.736Z,84.49
2023-05-24T13:23:26.352Z,83.49
2023-05-24T13:25:54.731Z,82.25
2023-05-24T13:28:23.298Z,85.35
2023-05-24T13:30:51.726Z,82.54
2023-05-24T13:33:20.442Z,85.88
2023-05-24T13:35:49.704Z,83.35
2023-05-24T13:38:19.448Z,81.82
2023-05-24T13:40:48.324Z,84.53
2023-05-24T13:43:16.946Z,80.89
2023-05-24T13:45:45.599Z,83.91
2023-05-24T13:48:14.232Z,84.22
2023-05-24T13:50:42.877Z,84.39
2023-05-24T13:53:11.373Z,81.05
2023-05-24T13:55:41.050Z,84.41
2023-05-24T13:58:09.382Z,81.51
2023-05-24T14:00:37.709Z,79.92
2023-05-24T14:03:06.460Z,78.77
2023-05-24T14:05:35.144Z,79.47
2023-05-24T14:08:06.914Z,78.04
2023-05-24T14:10:36.899Z,79.83
2023-05-24T14:15:39.121Z,83.88
2023-05-24T14:18:08.648Z,86.20
2023-05-24T14:20:38.123Z,84.42
2023-05-24T14:23:08.032Z,84.45
2023-05-24T14:25:36.517Z,79.65
2023-05-24T14:28:08.520Z,80.14
2023-05-24T14:30:38.181Z,80.60
2023-05-24T14:33:08.360Z,81.36
2023-05-24T14:35:39.976Z,78.47
2023-05-24T14:38:10.085Z,76.76
2023-05-24T14:40:40.113Z,82.51
2023-05-24T14:43:10.801Z,78.33
2023-05-24T14:45:41.264Z,77.24
2023-05-24T14:48:12.349Z,76.18
2023-05-24T14:50:42.176Z,76.26
2023-05-24T14:53:12.403Z,73.94
2023-05-24T14:55:43.132Z,72.90
2023-05-24T14:58:14.151Z,72.07
2023-05-24T15:00:43.962Z,71.94
2023-05-24T15:03:14.585Z,71.99
2023-05-24T15:05:43.637Z,73.90
2023-05-24T15:08:12.218Z,68.55
2023-05-24T15:10:41.023Z,70.44
2023-05-24T15:13:09.547Z,71.69
2023-05-24T15:15:39.342Z,72.38
2023-05-24T15:18:08.218Z,69.47
2023-05-24T15:20:36.785Z,76.05
2023-05-24T15:23:05.268Z,78.20
2023-05-24T15:25:33.517Z,79.88
2023-05-24T15:28:02.050Z,76.17
2023-05-24T15:30:30.310Z,73.50
2023-05-24T15:32:59.926Z,72.52
2023-05-24T15:35:28.264Z,74.73
2023-05-24T15:37:56.538Z,75.97
2023-05-24T15:40:25.037Z,73.41
2023-05-24T15:42:53.991Z,75.76
2023-05-24T15:45:22.393Z,79.49
2023-05-24T15:47:50.923Z,78.29
2023-05-24T15:50:31.844Z,81.73
2023-05-24T15:53:09.250Z,82.54
2023-05-24T15:55:39.076Z,81.16
2023-05-24T15:58:07.463Z,81.36
2023-05-24T16:00:35.728Z,80.10
2023-05-24T16:03:04.150Z,81.68
2023-05-24T16:05:33.890Z,83.55
2023-05-24T16:08:02.602Z,83.78
2023-05-24T16:10:31.021Z,83.33
2023-05-24T16:12:59.710Z,84.27
2023-05-24T16:15:30.085Z,84.42
2023-05-24T16:17:58.614Z,86.75
2023-05-24T16:20:26.942Z,84.59
2023-05-24T16:22:56.539Z,80.72
2023-05-24T16:25:25.840Z,76.33
2023-05-24T16:27:56.374Z,72.32
2023-05-24T16:30:25.612Z,71.28
2023-05-24T16:32:54.171Z,73.15
2023-05-24T16:35:25.471Z,77.50
2023-05-24T16:37:55.986Z,81.84
2023-05-24T16:40:25.710Z,82.64
2023-05-24T16:42:54.425Z,81.79
2023-05-24T16:45:22.711Z,83.54
2023-05-24T16:47:51.213Z,86.59
2023-05-24T16:50:19.567Z,89.15
2023-05-24T16:52:48.519Z,88.85
2023-05-24T16:55:17.108Z,90.49
2023-05-24T16:57:46.740Z,91.54
2023-05-24T17:00:16.651Z,91.60
2023-05-24T17:02:45.173Z,91.24
2023-05-24T17:05:16.867Z,91.35
2023-05-24T17:07:45.579Z,91.63
2023-05-24T17:10:13.924Z,85.58
2023-05-24T17:12:42.401Z,85.80
2023-05-24T17:15:12.993Z,87.97
2023-05-24T17:17:41.360Z,88.78
2023-05-24T17:20:10.555Z,88.17
2023-05-24T17:22:38.921Z,91.16
2023-05-24T17:25:08.419Z,92.56
2023-05-24T17:27:36.761Z,93.14
2023-05-24T17:30:06.319Z,92.93
2023-05-24T17:32:36.040Z,93.70
2023-05-24T17:35:04.645Z,93.51
2023-05-24T17:37:32.850Z,93.82
2023-05-24T17:40:01.112Z,94.91
2023-05-24T17:42:29.582Z,96.25
2023-05-24T17:44:57.852Z,96.69
2023-05-24T17:47:26.171Z,98.08
2023-05-24T17:49:55.849Z,98.35
2023-05-24T17:52:24.081Z,97.74
2023-05-24T17:54:52.344Z,98.66
2023-05-24T17:57:20.729Z,99.23
2023-05-24T17:59:49.072Z,99.01
2023-05-24T18:02:17.357Z,99.51
2023-05-24T18:04:45.752Z,99.32
2023-05-24T18:07:15.841Z,99.51
2023-05-24T18:09:44.096Z,100.27
2023-05-24T18:12:12.773Z,100.38
2023-05-24T18:14:41.783Z,100.47
2023-05-24T18:17:10.169Z,100.62
2023-05-24T18:19:38.721Z,100.51
2023-05-24T18:22:07.045Z,100.79
2023-05-24T18:24:36.730Z,100.38
2023-05-24T18:27:05.327Z,100.67
2023-05-24T18:29:34.542Z,101.10
2023-05-24T18:32:02.893Z,100.78
2023-05-24T18:34:31.323Z,102.12
2023-05-24T18:36:59.610Z,101.50
2023-05-24T18:39:27.918Z,101.68
2023-05-24T18:41:57.630Z,102.49
2023-05-24T18:44:25.931Z,101.69
2023-05-24T18:46:56.127Z,101.80
2023-05-24T18:49:24.717Z,101.62
2023-05-24T18:51:53.048Z,102.08
2023-05-24T18:54:21.384Z,100.81
2023-05-24T18:56:49.756Z,102.16
2023-05-24T18:59:21.655Z,102.03
2023-05-24T19:01:49.990Z,101.23
2023-05-24T19:04:18.383Z,102.02
2023-05-24T19:06:46.673Z,101.06
2023-05-24T19:09:15.061Z,103.07
2023-05-24T19:11:45.638Z,102.35
2023-05-24T19:14:17.744Z,101.66
2023-05-24T19:16:47.769Z,102.78
2023-05-24T19:19:16.200Z,101.91
2023-05-24T19:21:44.421Z,102.47
2023-05-24T19:24:12.628Z,102.57
2023-05-24T19:26:40.919Z,101.95
2023-05-24T19:29:09.170Z,102.12
2023-05-24T19:31:37.444Z,102.41
2023-05-24T19:34:09.893Z,102.26
2023-05-24T19:37:01.335Z,102.46
2023-05-24T19:39:29.754Z,102.25
2023-05-24T19:41:57.990Z,102.15
2023-05-24T19:44:26.320Z,102.23
2023-05-24T19:46:54.676Z,102.08
2023-05-24T19:49:24.341Z,100.16
2023-05-24T19:51:52.986Z,100.36
2023-05-24T19:54:21.544Z,100.90
2023-05-24T19:56:51.933Z,99.74
2023-05-24T19:59:20.450Z,99.80
2023-05-24T20:01:48.757Z,100.64
2023-05-24T20:04:17.163Z,99.44
2023-05-24T20:06:46.829Z,98.74
2023-05-24T20:09:18.762Z,99.58
2023-05-24T20:11:47.276Z,98.99
2023-05-24T20:14:15.653Z,98.76
2023-05-24T20:16:44.095Z,98.29
2023-05-24T20:19:13.361Z,98.15
2023-05-24T20:21:41.609Z,98.58
2023-05-24T20:24:11.267Z,99.48
2023-05-24T20:26:39.561Z,98.64
2023-05-24T20:29:07.836Z,98.80
2023-05-24T20:31:37.416Z,101.81
2023-05-24T20:34:05.786Z,100.42
2023-05-24T20:36:34.036Z,101.69
2023-05-24T20:39:02.368Z,101.16
2023-05-24T20:41:32.350Z,100.21
2023-05-24T20:44:00.656Z,102.94
2023-05-24T20:46:29.139Z,102.40
2023-05-24T20:48:57.687Z,101.61
2023-05-24T20:51:25.961Z,102.73
2023-05-24T20:53:54.246Z,100.35
2023-05-24T20:56:24.045Z,100.79
2023-05-24T20:58:54.363Z,101.57
2023-05-24T21:01:23.166Z,99.57
2023-05-24T21:03:51.476Z,99.29
2023-05-24T21:06:20.845Z,99.58
2023-05-24T21:08:49.196Z,99.85
2023-05-24T21:11:17.500Z,99.53
2023-05-24T21:13:46.402Z,99.19
2023-05-24T21:16:16.186Z,97.46
2023-05-24T21:18:44.466Z,98.74
2023-05-24T21:21:13.007Z,99.93
2023-05-24T21:23:41.266Z,99.41
2023-05-24T21:26:09.738Z,100.03
2023-05-24T21:28:38.150Z,99.06
2023-05-24T21:31:07.998Z,97.92
2023-05-24T21:33:39.645Z,99.10
2023-05-24T21:36:08.361Z,98.35
2023-05-24T21:38:36.584Z,97.60
2023-05-24T21:41:05.834Z,96.99
2023-05-24T21:43:34.164Z,97.07
2023-05-24T21:46:02.395Z,95.99
2023-05-24T21:48:30.670Z,97.06
2023-05-24T21:51:00.305Z,97.10
2023-05-24T21:53:28.645Z,95.43
2023-05-24T21:55:57.417Z,94.84
2023-05-24T21:58:26.298Z,95.39
2023-05-24T22:00:55.658Z,96.01
2023-05-24T22:03:26.911Z,95.42
2023-05-24T22:05:55.263Z,96.82
2023-05-24T22:08:24.933Z,96.44
2023-05-24T22:10:53.274Z,98.12
2023-05-24T22:13:21.531Z,98.13
2023-05-24T22:15:49.949Z,96.11
2023-05-24T22:18:18.708Z,96.98
2023-05-24T22:20:47.132Z,96.34
2023-05-24T22:23:15.846Z,96.81
2023-05-24T22:25:45.564Z,96.81
2023-05-24T22:28:14.312Z,97.61
2023-05-24T22:30:42.542Z,99.39
2023-05-24T22:33:10.790Z,96.85
2023-05-24T22:35:39.026Z,96.06
2023-05-24T22:38:07.321Z,96.91
2023-05-24T22:40:36.740Z,95.08
2023-05-24T22:43:06.348Z,97.08
2023-05-24T22:45:34.623Z,93.95
2023-05-24T22:48:03.390Z,96.58
2023-05-24T22:50:32.277Z,96.70
2023-05-24T22:53:00.563Z,96.32
2023-05-24T22:55:28.843Z,95.65
2023-05-24T22:57:57.035Z,94.40
2023-05-24T23:00:26.653Z,96.64
2023-05-24T23:02:55.124Z,94.71
2023-05-24T23:05:24.108Z,96.37
2023-05-24T23:07:52.599Z,95.12
2023-05-24T23:10:20.936Z,94.87
2023-05-24T23:12:49.144Z,93.98
2023-05-24T23:15:18.264Z,92.97
2023-05-24T23:17:48.246Z,93.94
2023-05-24T23:20:16.661Z,93.27
2023-05-24T23:22:44.879Z,94.54
2023-05-24T23:25:13.306Z,92.49
2023-05-24T23:27:41.952Z,92.40
2023-05-24T23:30:11.046Z,92.00
2023-05-24T23:32:39.346Z,91.71
2023-05-24T23:35:09.931Z,90.95
2023-05-24T23:37:38.202Z,91.32
2023-05-24T23:40:07.475Z,89.53
2023-05-24T23:42:36.345Z,91.31
2023-05-24T23:45:05.110Z,89.77
2023-05-24T23:47:33.523Z,91.11
2023-05-24T23:50:01.789Z,88.69
2023-05-24T23:52:31.443Z,86.36
2023-05-24T23:54:59.717Z,85.90
2023-05-24T23:57:30.863Z,88.00
2023-05-24T23:59:59.051Z,86.75
